Time;durP1;ratioP1;P1;durP2;ratioP2;P2;SDS_P1;SDS_P2;PMS_P1;PMS_P2;Temp;Humidity;BMP_temperature;BMP_pressure;BME280_temperature;BME280_humidity;BME280_pressure;Samples;Min_cycle;Max_cycle;Signal;HPM_P1;HPM_P2
2022/05/21 00:00:21;;;;;;;8.82;2.80;;;;;;;;;;5071378;28;20028;-67
2022/05/21 00:02:48;;;;;;;7.75;2.65;;;;;;;;;;5071190;28;20020;-68
2022/05/21 00:05:15;;;;;;;9.15;3.30;;;;;;;;;;5070429;28;20024;-65
2022/05/21 00:07:44;;;;;;;6.85;2.85;;;;;;;;;;5070583;28;20372;-67
2022/05/21 00:10:13;;;;;;;5.72;2.78;;;;;;;;;;5072274;28;20073;-67
2022/05/21 00:12:40;;;;;;;6.65;3.13;;;;;;;;;;5071795;28;20093;-67
2022/05/21 00:15:06;;;;;;;6.68;3.35;;;;;;;;;;5071409;28;20029;-66
2022/05/21 00:17:32;;;;;;;9.07;3.28;;;;;;;;;;5067339;28;20380;-66
2022/05/21 00:19:58;;;;;;;11.88;3.60;;;;;;;;;;5071612;28;20024;-67
2022/05/21 00:22:24;;;;;;;6.95;4.15;;;;;;;;;;5070943;28;20033;-66
2022/05/21 00:24:49;;;;;;;9.65;3.60;;;;;;;;;;5071250;28;20480;-66
2022/05/21 00:27:15;;;;;;;11.73;3.80;;;;;;;;;;5071072;28;20028;-66
2022/05/21 00:29:41;;;;;;;8.10;3.88;;;;;;;;;;5066398;28;20033;-66
2022/05/21 00:32:07;;;;;;;10.00;4.80;;;;;;;;;;5070529;28;20056;-65
2022/05/21 00:34:34;;;;;;;16.85;4.50;;;;;;;;;;5071533;28;20016;-65
2022/05/21 00:37:01;;;;;;;12.30;5.10;;;;;;;;;;5071424;28;20036;-65
2022/05/21 00:39:28;;;;;;;9.55;5.82;;;;;;;;;;5065445;28;20543;-67
2022/05/21 00:41:54;;;;;;;10.10;5.20;;;;;;;;;;5069328;28;20063;-66
2022/05/21 00:44:20;;;;;;;7.97;4.78;;;;;;;;;;5071299;28;20103;-66
2022/05/21 00:46:48;;;;;;;7.65;4.97;;;;;;;;;;5071402;28;20471;-66
2022/05/21 00:49:25;;;;;;;6.68;4.25;;;;;;;;;;5071779;28;20036;-66
2022/05/21 00:52:00;;;;;;;10.80;4.68;;;;;;;;;;5067952;28;20032;-67
2022/05/21 00:54:32;;;;;;;7.63;4.38;;;;;;;;;;5071821;28;20028;-66
2022/05/21 00:57:03;;;;;;;6.63;4.10;;;;;;;;;;5071488;28;20040;-67
2022/05/21 00:59:48;;;;;;;8.20;4.65;;;;;;;;;;5071449;28;20082;-66
2022/05/21 01:02:19;;;;;;;26.85;6.55;;;;;;;;;;5051041;28;20036;-67
2022/05/21 01:04:45;;;;;;;13.40;6.60;;;;;;;;;;5061747;28;20607;-65
2022/05/21 01:07:14;;;;;;;10.50;5.25;;;;;;;;;;5070052;28;20524;-69
2022/05/21 01:09:43;;;;;;;10.32;4.93;;;;;;;;;;5061652;28;20115;-72
2022/05/21 01:12:09;;;;;;;8.63;4.43;;;;;;;;;;5052052;28;20108;-70
2022/05/21 01:14:36;;;;;;;11.65;4.75;;;;;;;;;;5050476;28;20040;-72
2022/05/21 01:17:03;;;;;;;8.30;4.82;;;;;;;;;;5051582;28;20056;-70
2022/05/21 01:19:30;;;;;;;8.45;4.07;;;;;;;;;;5051603;28;20064;-69
2022/05/21 01:21:56;;;;;;;7.50;4.55;;;;;;;;;;5054511;28;20063;-68
2022/05/21 01:24:21;;;;;;;10.07;5.00;;;;;;;;;;5051179;28;20028;-67
2022/05/21 01:26:48;;;;;;;7.85;4.50;;;;;;;;;;5070887;28;20066;-66
2022/05/21 01:29:21;;;;;;;7.30;4.43;;;;;;;;;;5069192;28;20119;-66
2022/05/21 01:31:49;;;;;;;9.85;5.45;;;;;;;;;;5052056;28;20060;-66
2022/05/21 01:34:15;;;;;;;11.82;4.78;;;;;;;;;;5050326;28;20112;-65
2022/05/21 01:36:41;;;;;;;12.77;4.72;;;;;;;;;;5049679;28;20427;-65
2022/05/21 01:39:07;;;;;;;8.88;4.38;;;;;;;;;;5049418;28;20025;-67
2022/05/21 01:41:33;;;;;;;9.18;4.75;;;;;;;;;;5053164;28;20086;-67
2022/05/21 01:46:43;;;;;;;8.90;4.75;;;;;;;;;;5050687;28;20037;-67
2022/05/21 01:49:09;;;;;;;11.77;5.15;;;;;;;;;;5053391;28;20559;-66
2022/05/21 01:51:34;;;;;;;11.27;4.97;;;;;;;;;;5071221;28;20047;-66
2022/05/21 01:54:00;;;;;;;6.65;4.45;;;;;;;;;;5058667;28;20048;-69
2022/05/21 01:56:26;;;;;;;13.48;6.00;;;;;;;;;;5063314;28;20052;-66
2022/05/21 01:58:52;;;;;;;12.15;5.00;;;;;;;;;;5049491;28;20556;-69
2022/05/21 02:01:18;;;;;;;12.30;5.60;;;;;;;;;;5050273;28;20407;-66
2022/05/21 02:03:44;;;;;;;10.18;4.90;;;;;;;;;;5056099;28;20443;-68
2022/05/21 02:06:10;;;;;;;8.27;4.40;;;;;;;;;;5060011;28;20059;-66
2022/05/21 02:08:36;;;;;;;11.88;4.55;;;;;;;;;;5054065;28;20037;-66
2022/05/21 02:11:02;;;;;;;7.30;4.20;;;;;;;;;;5051479;28;20041;-65
2022/05/21 02:13:31;;;;;;;10.05;4.43;;;;;;;;;;5055563;28;20016;-66
2022/05/21 02:15:57;;;;;;;9.55;4.47;;;;;;;;;;5055058;28;20044;-68
2022/05/21 02:18:24;;;;;;;13.93;4.53;;;;;;;;;;5054373;28;20323;-66
2022/05/21 02:20:50;;;;;;;5.97;4.10;;;;;;;;;;5061580;28;20025;-68
2022/05/21 02:23:17;;;;;;;6.43;4.03;;;;;;;;;;5063137;28;20035;-67
2022/05/21 02:25:44;;;;;;;7.40;3.92;;;;;;;;;;5064862;28;20207;-66
2022/05/21 02:28:10;;;;;;;6.60;4.18;;;;;;;;;;5055411;28;20158;-67
2022/05/21 02:30:36;;;;;;;9.85;4.50;;;;;;;;;;5061258;28;20041;-64
2022/05/21 02:33:02;;;;;;;6.03;3.88;;;;;;;;;;5063467;28;20024;-67
2022/05/21 02:35:28;;;;;;;9.93;4.97;;;;;;;;;;5054006;28;20044;-66
2022/05/21 02:40:38;;;;;;;10.80;4.13;;;;;;;;;;5069280;28;20441;-68
2022/05/21 02:43:04;;;;;;;14.57;4.97;;;;;;;;;;5055174;28;20063;-66
2022/05/21 02:45:30;;;;;;;9.98;4.55;;;;;;;;;;5070974;28;20025;-67
2022/05/21 02:47:56;;;;;;;8.93;4.60;;;;;;;;;;5069489;28;20017;-66
2022/05/21 02:50:28;;;;;;;6.70;4.07;;;;;;;;;;5074133;28;20036;-66
2022/05/21 02:52:54;;;;;;;10.93;4.47;;;;;;;;;;5064128;28;20040;-65
2022/05/21 02:55:20;;;;;;;9.55;4.03;;;;;;;;;;5067535;28;20032;-67
2022/05/21 02:57:46;;;;;;;8.43;3.50;;;;;;;;;;5055487;28;20102;-66
2022/05/21 03:00:30;;;;;;;8.27;3.65;;;;;;;;;;5059178;28;20123;-70
2022/05/21 03:02:56;;;;;;;7.95;3.85;;;;;;;;;;5061320;28;20044;-67
2022/05/21 03:05:23;;;;;;;11.02;4.28;;;;;;;;;;5069957;28;20060;-67
2022/05/21 03:07:51;;;;;;;9.75;4.55;;;;;;;;;;5058236;28;20039;-66
2022/05/21 03:10:23;;;;;;;9.55;4.43;;;;;;;;;;5068890;28;20025;-66
2022/05/21 03:12:55;;;;;;;7.55;4.20;;;;;;;;;;5052603;28;20037;-66
2022/05/21 03:15:24;;;;;;;11.15;4.22;;;;;;;;;;5072754;28;20036;-66
2022/05/21 03:17:50;;;;;;;8.20;3.97;;;;;;;;;;5065573;28;20105;-68
2022/05/21 03:20:17;;;;;;;15.80;4.00;;;;;;;;;;5053346;28;20108;-65
2022/05/21 03:22:43;;;;;;;10.80;4.38;;;;;;;;;;5052281;28;20090;-65
2022/05/21 03:25:11;;;;;;;8.63;3.58;;;;;;;;;;5053677;28;20539;-66
2022/05/21 03:27:37;;;;;;;10.77;3.90;;;;;;;;;;5067048;28;20115;-65
2022/05/21 03:30:06;;;;;;;17.88;5.40;;;;;;;;;;5057279;28;20437;-65
2022/05/21 03:32:32;;;;;;;7.97;3.78;;;;;;;;;;5072864;28;20131;-66
2022/05/21 03:34:57;;;;;;;10.57;3.67;;;;;;;;;;5070910;28;20032;-66
2022/05/21 03:37:23;;;;;;;8.30;3.15;;;;;;;;;;5072977;28;20500;-66
2022/05/21 03:39:50;;;;;;;12.68;3.45;;;;;;;;;;5073112;28;20118;-66
2022/05/21 03:42:16;;;;;;;5.82;2.97;;;;;;;;;;5073412;28;20421;-68
2022/05/21 03:44:43;;;;;;;5.95;3.30;;;;;;;;;;5059611;28;20029;-67
2022/05/21 03:47:10;;;;;;;7.60;3.05;;;;;;;;;;5084399;28;20163;-69
2022/05/21 03:49:36;;;;;;;6.45;2.97;;;;;;;;;;5051878;28;20510;-66
2022/05/21 03:52:02;;;;;;;7.47;3.03;;;;;;;;;;5052154;28;20025;-67
2022/05/21 03:54:28;;;;;;;7.43;2.55;;;;;;;;;;5069647;28;20029;-66
2022/05/21 03:56:55;;;;;;;8.57;2.83;;;;;;;;;;5063532;28;20047;-66
2022/05/21 03:59:20;;;;;;;7.18;2.50;;;;;;;;;;5071460;28;20479;-67
2022/05/21 04:01:46;;;;;;;9.60;3.58;;;;;;;;;;5058831;28;20113;-69
2022/05/21 04:04:12;;;;;;;17.13;3.65;;;;;;;;;;5068585;28;20098;-66
2022/05/21 04:06:38;;;;;;;8.20;3.38;;;;;;;;;;5061258;28;20159;-68
2022/05/21 04:09:04;;;;;;;10.73;3.53;;;;;;;;;;5057481;28;20124;-69
2022/05/21 04:11:30;;;;;;;8.40;3.38;;;;;;;;;;5054174;28;20033;-70
2022/05/21 04:13:56;;;;;;;11.85;3.75;;;;;;;;;;5063957;28;20029;-67
2022/05/21 04:16:23;;;;;;;8.85;3.25;;;;;;;;;;5054810;28;20027;-69
2022/05/21 04:18:49;;;;;;;9.82;3.85;;;;;;;;;;5065264;28;20021;-69
2022/05/21 04:21:15;;;;;;;13.70;5.25;;;;;;;;;;5061406;28;20031;-67
2022/05/21 04:23:40;;;;;;;16.88;5.20;;;;;;;;;;5070011;28;20498;-70
2022/05/21 04:26:06;;;;;;;16.40;4.95;;;;;;;;;;5071714;28;20074;-69
2022/05/21 04:28:34;;;;;;;9.07;4.07;;;;;;;;;;5064243;28;20037;-69
2022/05/21 04:31:00;;;;;;;12.10;4.65;;;;;;;;;;5058488;28;20215;-70
2022/05/21 04:33:25;;;;;;;26.70;6.25;;;;;;;;;;5051600;28;20462;-70
2022/05/21 04:38:35;;;;;;;15.05;5.75;;;;;;;;;;5052562;28;20396;-76
2022/05/21 04:41:02;;;;;;;14.57;4.60;;;;;;;;;;5052540;28;20040;-69
2022/05/21 04:43:29;;;;;;;9.68;4.15;;;;;;;;;;5053912;28;20033;-70
2022/05/21 04:45:56;;;;;;;14.57;5.25;;;;;;;;;;5070854;28;20021;-74
2022/05/21 04:48:22;;;;;;;8.02;4.68;;;;;;;;;;5067628;28;20086;-69
2022/05/21 04:50:48;;;;;;;8.98;4.47;;;;;;;;;;5072450;28;20031;-69
2022/05/21 04:53:14;;;;;;;12.00;4.97;;;;;;;;;;5065960;28;20076;-66
2022/05/21 04:55:40;;;;;;;9.27;4.60;;;;;;;;;;5072776;28;20480;-68
2022/05/21 04:58:06;;;;;;;12.25;4.70;;;;;;;;;;5065000;28;20032;-73
2022/05/21 05:00:33;;;;;;;10.43;5.10;;;;;;;;;;5068158;28;20047;-75
2022/05/21 05:02:59;;;;;;;6.75;4.47;;;;;;;;;;5071778;28;20032;-71
2022/05/21 05:05:25;;;;;;;12.07;4.60;;;;;;;;;;5070247;28;20024;-71
2022/05/21 05:07:51;;;;;;;11.52;4.95;;;;;;;;;;5066222;28;20032;-68
2022/05/21 05:10:17;;;;;;;9.90;4.05;;;;;;;;;;5061468;28;20562;-67
2022/05/21 05:12:43;;;;;;;6.57;3.92;;;;;;;;;;5058465;28;20037;-68
2022/05/21 05:15:10;;;;;;;6.63;4.15;;;;;;;;;;5051373;28;20043;-67
2022/05/21 05:17:36;;;;;;;8.43;4.13;;;;;;;;;;5051595;28;20044;-70
2022/05/21 05:20:02;;;;;;;11.90;4.22;;;;;;;;;;5053049;28;20025;-69
2022/05/21 05:22:28;;;;;;;9.35;4.13;;;;;;;;;;5071129;28;20024;-67
2022/05/21 05:24:54;;;;;;;7.28;4.55;;;;;;;;;;5064339;28;20024;-69
2022/05/21 05:27:21;;;;;;;11.77;4.70;;;;;;;;;;5063612;28;20035;-65
2022/05/21 05:29:46;;;;;;;12.07;5.18;;;;;;;;;;5070264;28;20029;-70
2022/05/21 05:32:12;;;;;;;9.65;4.63;;;;;;;;;;5069673;28;20044;-66
2022/05/21 05:34:38;;;;;;;8.75;4.38;;;;;;;;;;5065663;28;20032;-66
2022/05/21 05:37:04;;;;;;;11.57;4.38;;;;;;;;;;5070914;28;20064;-66
2022/05/21 05:39:31;;;;;;;16.60;5.45;;;;;;;;;;5069992;28;20052;-67
2022/05/21 05:41:57;;;;;;;10.40;5.10;;;;;;;;;;5071588;28;20117;-67
2022/05/21 05:44:24;;;;;;;14.77;4.55;;;;;;;;;;5071890;28;20075;-72
2022/05/21 05:46:50;;;;;;;7.07;4.30;;;;;;;;;;5070200;28;20089;-72
2022/05/21 05:49:16;;;;;;;10.90;3.58;;;;;;;;;;5069667;28;20024;-72
2022/05/21 05:51:42;;;;;;;11.05;5.00;;;;;;;;;;5071899;28;20043;-71
2022/05/21 05:54:08;;;;;;;22.45;13.68;;;;;;;;;;5071081;28;20036;-71
2022/05/21 05:56:34;;;;;;;9.00;4.43;;;;;;;;;;5071541;28;20414;-73
2022/05/21 06:01:44;;;;;;;9.65;3.40;;;;;;;;;;5063266;28;20040;-74
2022/05/21 06:04:10;;;;;;;11.18;3.38;;;;;;;;;;5070476;28;20020;-76
2022/05/21 06:06:36;;;;;;;8.13;3.08;;;;;;;;;;5067006;28;20051;-72
2022/05/21 06:09:03;;;;;;;10.48;3.17;;;;;;;;;;5052768;28;20464;-79
2022/05/21 06:11:33;;;;;;;7.05;3.97;;;;;;;;;;5065838;28;20467;-77
2022/05/21 06:13:58;;;;;;;7.40;3.38;;;;;;;;;;5069275;28;20023;-75
2022/05/21 06:16:24;;;;;;;6.00;2.83;;;;;;;;;;5069995;28;20032;-72
2022/05/21 06:18:50;;;;;;;5.60;2.70;;;;;;;;;;5070031;28;20407;-75
2022/05/21 06:21:16;;;;;;;4.40;2.75;;;;;;;;;;5066110;28;20094;-73
2022/05/21 06:23:43;;;;;;;6.45;2.60;;;;;;;;;;5052140;28;20029;-73
2022/05/21 06:26:11;;;;;;;6.93;2.28;;;;;;;;;;5053292;28;20037;-73
2022/05/21 06:28:37;;;;;;;8.10;2.50;;;;;;;;;;5074110;28;20025;-72
2022/05/21 06:31:03;;;;;;;5.40;2.83;;;;;;;;;;5072682;28;20081;-72
2022/05/21 06:33:30;;;;;;;6.50;2.40;;;;;;;;;;5074030;28;20024;-73
2022/05/21 06:36:16;;;;;;;6.47;2.63;;;;;;;;;;5073763;28;20024;-71
2022/05/21 06:38:44;;;;;;;8.15;3.28;;;;;;;;;;5073848;28;20033;-72
2022/05/21 06:41:10;;;;;;;8.30;2.97;;;;;;;;;;5074220;28;20020;-72
2022/05/21 06:43:37;;;;;;;6.20;2.30;;;;;;;;;;5074342;28;20422;-73
2022/05/21 06:46:03;;;;;;;4.45;2.20;;;;;;;;;;5068015;28;20037;-77
2022/05/21 06:48:29;;;;;;;6.60;2.83;;;;;;;;;;5072488;28;20043;-73
2022/05/21 06:50:56;;;;;;;5.88;3.28;;;;;;;;;;5074119;28;20030;-75
2022/05/21 06:53:22;;;;;;;6.50;2.30;;;;;;;;;;5073716;28;20369;-75
2022/05/21 06:55:48;;;;;;;5.45;2.45;;;;;;;;;;5071685;28;20055;-73
2022/05/21 06:58:14;;;;;;;6.68;3.20;;;;;;;;;;5073784;28;20102;-72
2022/05/21 07:00:39;;;;;;;7.97;2.97;;;;;;;;;;5073639;28;20044;-74
2022/05/21 07:03:08;;;;;;;5.07;2.63;;;;;;;;;;5067499;28;20029;-74
2022/05/21 07:08:28;;;;;;;8.73;2.63;;;;;;;;;;5053208;28;20029;-72
2022/05/21 07:10:54;;;;;;;3.35;2.40;;;;;;;;;;5053890;28;20212;-72
2022/05/21 07:13:22;;;;;;;6.82;2.20;;;;;;;;;;5053726;28;20106;-75
2022/05/21 07:15:49;;;;;;;5.35;2.35;;;;;;;;;;5053739;28;20032;-73
2022/05/21 07:18:17;;;;;;;5.18;2.33;;;;;;;;;;5054161;28;20048;-74
2022/05/21 07:20:45;;;;;;;4.75;2.35;;;;;;;;;;5053861;28;20036;-73
2022/05/21 07:23:12;;;;;;;10.27;2.70;;;;;;;;;;5053405;28;20017;-73
2022/05/21 07:25:42;;;;;;;7.72;2.22;;;;;;;;;;5053676;28;20520;-73
2022/05/21 07:28:09;;;;;;;5.20;2.20;;;;;;;;;;5053207;28;20039;-74
2022/05/21 07:30:35;;;;;;;3.53;2.30;;;;;;;;;;5052655;28;20033;-73
2022/05/21 07:33:01;;;;;;;13.10;2.47;;;;;;;;;;5055342;28;20024;-74
2022/05/21 07:35:30;;;;;;;4.88;2.15;;;;;;;;;;5062080;28;20029;-71
2022/05/21 07:37:56;;;;;;;6.78;2.20;;;;;;;;;;5052968;28;20094;-74
2022/05/21 07:40:26;;;;;;;8.48;3.30;;;;;;;;;;5060644;28;20029;-73
2022/05/21 07:42:53;;;;;;;6.50;2.53;;;;;;;;;;5059548;28;20036;-72
2022/05/21 07:45:20;;;;;;;7.30;2.83;;;;;;;;;;5080885;28;20486;-74
2022/05/21 07:47:47;;;;;;;7.25;2.13;;;;;;;;;;5064219;28;20033;-75
2022/05/21 07:50:14;;;;;;;4.90;2.20;;;;;;;;;;5061197;28;20032;-74
2022/05/21 07:52:41;;;;;;;7.18;2.30;;;;;;;;;;5072159;28;20479;-74
2022/05/21 07:55:07;;;;;;;4.00;1.92;;;;;;;;;;5070236;28;20028;-73
2022/05/21 07:57:34;;;;;;;5.55;2.28;;;;;;;;;;5072012;28;20070;-73
2022/05/21 08:00:00;;;;;;;15.43;3.85;;;;;;;;;;5060232;28;20134;-72
2022/05/21 08:02:25;;;;;;;7.40;2.30;;;;;;;;;;5068330;28;20443;-75
2022/05/21 08:04:51;;;;;;;6.50;2.38;;;;;;;;;;5051981;28;20380;-74
2022/05/21 08:07:18;;;;;;;6.93;3.20;;;;;;;;;;5072024;28;20116;-74
2022/05/21 08:09:44;;;;;;;5.70;2.40;;;;;;;;;;5072547;28;20033;-75
2022/05/21 08:12:14;;;;;;;10.85;2.40;;;;;;;;;;5070937;28;20128;-73
2022/05/21 08:14:42;;;;;;;2.72;1.67;;;;;;;;;;5072994;28;20029;-76
2022/05/21 08:17:10;;;;;;;3.63;1.83;;;;;;;;;;5069974;28;20058;-71
2022/05/21 08:19:37;;;;;;;3.55;2.13;;;;;;;;;;5072950;28;20032;-72
2022/05/21 08:27:32;;;;;;;5.57;2.03;;;;;;;;;;5072449;28;20391;-73
2022/05/21 08:29:58;;;;;;;7.28;2.05;;;;;;;;;;5072883;28;20035;-72
2022/05/21 08:32:24;;;;;;;7.32;3.08;;;;;;;;;;5073170;28;20082;-72
2022/05/21 08:34:52;;;;;;;5.50;2.60;;;;;;;;;;5071797;28;20024;-72
2022/05/21 08:37:20;;;;;;;4.60;2.10;;;;;;;;;;5072365;28;20566;-71
2022/05/21 08:39:46;;;;;;;3.97;1.60;;;;;;;;;;5072978;28;20020;-72
2022/05/21 08:42:33;;;;;;;6.85;1.88;;;;;;;;;;5071656;28;20442;-72
2022/05/21 08:45:16;;;;;;;7.10;1.90;;;;;;;;;;5071170;28;20032;-73
2022/05/21 08:47:44;;;;;;;3.53;1.33;;;;;;;;;;5072350;28;20036;-73
2022/05/21 08:50:14;;;;;;;3.40;1.65;;;;;;;;;;5071123;28;20024;-72
2022/05/21 08:52:58;;;;;;;2.72;1.50;;;;;;;;;;5072404;28;20032;-73
2022/05/21 08:55:31;;;;;;;3.10;2.08;;;;;;;;;;5072541;28;20475;-71
2022/05/21 08:58:01;;;;;;;7.45;1.88;;;;;;;;;;5072450;28;20107;-71
2022/05/21 09:00:35;;;;;;;5.65;1.70;;;;;;;;;;5072826;28;20384;-71
2022/05/21 09:03:08;;;;;;;4.38;1.60;;;;;;;;;;5072536;28;20051;-71
2022/05/21 09:05:34;;;;;;;11.10;2.78;;;;;;;;;;5072466;28;20098;-73
2022/05/21 09:08:13;;;;;;;3.13;2.00;;;;;;;;;;5070908;28;20029;-71
2022/05/21 09:10:53;;;;;;;6.78;1.85;;;;;;;;;;5071999;28;20570;-71
2022/05/21 09:13:46;;;;;;;7.72;2.10;;;;;;;;;;5071942;28;20032;-73
2022/05/21 09:19:08;;;;;;;6.30;2.30;;;;;;;;;;5060068;28;20036;-72
2022/05/21 09:21:39;;;;;;;4.72;1.67;;;;;;;;;;5071948;28;20078;-69
2022/05/21 09:24:06;;;;;;;5.22;1.77;;;;;;;;;;5057247;28;20029;-71
2022/05/21 09:26:48;;;;;;;5.10;1.63;;;;;;;;;;5072520;28;20021;-72
2022/05/21 09:29:33;;;;;;;3.97;1.60;;;;;;;;;;5070921;28;20590;-70
2022/05/21 09:32:17;;;;;;;4.63;2.00;;;;;;;;;;5070435;28;20043;-70
2022/05/21 09:34:44;;;;;;;5.68;1.63;;;;;;;;;;5071435;28;20061;-70
2022/05/21 09:37:16;;;;;;;4.70;1.55;;;;;;;;;;5071557;28;20512;-71
2022/05/21 09:39:43;;;;;;;;;;;;;;;;;;5065682;28;20125;-72
2022/05/21 09:45:22;;;;;;;7.95;1.90;;;;;;;;;;5059819;28;20108;-72
2022/05/21 09:48:06;;;;;;;5.78;2.13;;;;;;;;;;5067246;28;20062;-69
2022/05/21 09:50:43;;;;;;;2.63;1.73;;;;;;;;;;5068317;28;20051;-71
2022/05/21 09:53:40;;;;;;;6.57;2.72;;;;;;;;;;5067883;28;20438;-71
2022/05/21 09:56:08;;;;;;;3.78;2.00;;;;;;;;;;5074635;28;20442;-70
2022/05/21 09:58:41;;;;;;;4.65;1.90;;;;;;;;;;5072918;28;20033;-72
2022/05/21 10:01:11;;;;;;;3.95;1.83;;;;;;;;;;5075800;28;20107;-71
2022/05/21 10:03:47;;;;;;;3.92;1.70;;;;;;;;;;5076118;28;20548;-71
2022/05/21 10:06:24;;;;;;;6.53;1.80;;;;;;;;;;5075767;28;20086;-72
2022/05/21 10:11:57;;;;;;;6.45;2.08;;;;;;;;;;5075657;28;20037;-71
2022/05/21 10:14:47;;;;;;;7.63;2.53;;;;;;;;;;5073026;28;20036;-72
2022/05/21 10:17:34;;;;;;;11.68;4.60;;;;;;;;;;5072430;28;20028;-70
2022/05/21 10:20:06;;;;;;;6.55;3.65;;;;;;;;;;5069428;28;20036;-71
2022/05/21 10:22:44;;;;;;;4.73;1.90;;;;;;;;;;5066740;28;20112;-71
2022/05/21 10:25:19;;;;;;;3.97;1.40;;;;;;;;;;5058550;28;20306;-71
2022/05/21 10:28:06;;;;;;;7.10;3.05;;;;;;;;;;5074481;28;20040;-74
2022/05/21 10:30:57;;;;;;;4.95;1.65;;;;;;;;;;5056310;28;20440;-72
2022/05/21 10:33:36;;;;;;;5.03;1.55;;;;;;;;;;5067083;28;20041;-73
2022/05/21 10:36:19;;;;;;;4.40;2.00;;;;;;;;;;5069346;28;20043;-72
2022/05/21 10:38:51;;;;;;;9.98;2.50;;;;;;;;;;5055099;28;20368;-73
2022/05/21 10:41:30;;;;;;;4.72;1.80;;;;;;;;;;5055479;28;20033;-72
2022/05/21 10:44:01;;;;;;;2.78;1.45;;;;;;;;;;5070920;28;20154;-73
2022/05/21 10:47:03;;;;;;;4.80;1.60;;;;;;;;;;5074523;28;20491;-71
2022/05/21 10:49:47;;;;;;;3.90;1.60;;;;;;;;;;5055123;28;20541;-72
2022/05/21 10:52:36;;;;;;;16.90;11.13;;;;;;;;;;5055178;28;20029;-72
2022/05/21 10:55:20;;;;;;;3.60;1.95;;;;;;;;;;5055022;28;20029;-76
2022/05/21 10:57:54;;;;;;;28.52;20.88;;;;;;;;;;5054846;28;20037;-78
2022/05/21 11:00:34;;;;;;;6.43;2.60;;;;;;;;;;5071174;28;20095;-73
2022/05/21 11:03:06;;;;;;;3.13;1.90;;;;;;;;;;5077754;28;20051;-72
2022/05/21 11:05:44;;;;;;;4.70;1.63;;;;;;;;;;5071973;28;20119;-73
2022/05/21 11:08:24;;;;;;;5.65;2.30;;;;;;;;;;5073405;28;20029;-74
2022/05/21 11:10:55;;;;;;;3.72;1.70;;;;;;;;;;5074244;28;20043;-74
2022/05/21 11:13:27;;;;;;;4.28;1.70;;;;;;;;;;5073685;28;20103;-75
2022/05/21 11:16:01;;;;;;;5.40;1.77;;;;;;;;;;5073147;28;20024;-74
2022/05/21 11:18:36;;;;;;;5.38;2.20;;;;;;;;;;5074295;28;20475;-74
2022/05/21 11:21:24;;;;;;;6.97;1.60;;;;;;;;;;5074118;28;20120;-76
2022/05/21 11:24:08;;;;;;;3.70;1.50;;;;;;;;;;5074333;28;20056;-76
2022/05/21 11:26:57;;;;;;;3.03;1.27;;;;;;;;;;5073579;28;20032;-75
2022/05/21 11:29:32;;;;;;;4.35;2.03;;;;;;;;;;5074315;28;20036;-75
2022/05/21 11:37:44;;;;;;;3.53;1.60;;;;;;;;;;5069007;28;20051;-76
2022/05/21 11:40:49;;;;;;;5.78;1.70;;;;;;;;;;5072612;28;20036;-75
2022/05/21 11:43:16;;;;;;;3.42;1.30;;;;;;;;;;5072564;28;20502;-73
2022/05/21 11:46:01;;;;;;;2.40;1.42;;;;;;;;;;5073979;28;20025;-74
2022/05/21 11:48:29;;;;;;;3.40;1.73;;;;;;;;;;5071074;28;20364;-71
2022/05/21 11:51:22;;;;;;;5.82;1.80;;;;;;;;;;5053678;28;20025;-73
2022/05/21 11:53:48;;;;;;;4.63;1.48;;;;;;;;;;5053480;28;20052;-73
2022/05/21 11:56:14;;;;;;;6.38;2.08;;;;;;;;;;5053760;28;20045;-74
2022/05/21 11:58:58;;;;;;;3.25;1.30;;;;;;;;;;5055166;28;20037;-72
2022/05/21 12:01:45;;;;;;;2.45;1.25;;;;;;;;;;5053975;28;20065;-72
2022/05/21 12:04:35;;;;;;;4.95;1.50;;;;;;;;;;5052559;28;20496;-73
2022/05/21 12:07:05;;;;;;;4.15;1.50;;;;;;;;;;5051985;28;20037;-72
2022/05/21 12:09:34;;;;;;;4.60;1.80;;;;;;;;;;5062256;28;20052;-72
2022/05/21 12:12:25;;;;;;;2.47;1.42;;;;;;;;;;5073535;28;20060;-74
2022/05/21 12:14:55;;;;;;;2.42;1.40;;;;;;;;;;5057928;28;20061;-75
2022/05/21 12:17:51;;;;;;;6.22;2.30;;;;;;;;;;5053104;28;20029;-73
2022/05/21 12:20:44;;;;;;;4.90;2.03;;;;;;;;;;5053011;28;20041;-72
2022/05/21 12:23:12;;;;;;;;;;;;;;;;;;5053591;28;20029;-73
2022/05/21 12:25:44;;;;;;;3.83;1.90;;;;;;;;;;5053046;28;20439;-77
2022/05/21 12:28:11;;;;;;;7.55;3.90;;;;;;;;;;5052988;28;20385;-75
2022/05/21 12:30:36;;;;;;;2.47;1.48;;;;;;;;;;5053594;28;20036;-77
2022/05/21 12:33:03;;;;;;;7.40;2.40;;;;;;;;;;5053600;28;20383;-76
2022/05/21 12:35:45;;;;;;;6.97;1.80;;;;;;;;;;5069494;28;20017;-76
2022/05/21 12:38:35;;;;;;;7.20;1.80;;;;;;;;;;5072859;28;20039;-74
2022/05/21 12:41:25;;;;;;;4.80;1.65;;;;;;;;;;5059908;28;20037;-76
2022/05/21 12:43:53;;;;;;;4.72;1.90;;;;;;;;;;5053142;28;20032;-79
2022/05/21 12:46:32;;;;;;;4.43;1.80;;;;;;;;;;5052805;28;20024;-79
2022/05/21 12:49:04;;;;;;;4.88;1.55;;;;;;;;;;5052030;28;20456;-76
2022/05/21 12:51:32;;;;;;;2.05;1.40;;;;;;;;;;5070060;28;20551;-75
2022/05/21 12:54:01;;;;;;;2.55;1.40;;;;;;;;;;5070840;28;20082;-74
2022/05/21 12:56:33;;;;;;;4.00;1.50;;;;;;;;;;5072488;28;20098;-76
2022/05/21 12:59:08;;;;;;;9.07;1.63;;;;;;;;;;5072539;28;20067;-79
2022/05/21 13:01:43;;;;;;;5.55;1.63;;;;;;;;;;5071145;28;20040;-78
2022/05/21 13:04:48;;;;;;;2.67;1.42;;;;;;;;;;5059775;28;20558;-79
2022/05/21 13:07:20;;;;;;;4.72;1.55;;;;;;;;;;5032997;28;20119;-76
2022/05/21 13:09:59;;;;;;;6.57;1.77;;;;;;;;;;5052088;28;20045;-76
2022/05/21 13:12:39;;;;;;;4.13;1.65;;;;;;;;;;5051928;28;20048;-77
2022/05/21 13:15:10;;;;;;;3.85;1.40;;;;;;;;;;5050918;28;20036;-76
2022/05/21 13:18:04;;;;;;;2.20;1.45;;;;;;;;;;5050484;28;20108;-76
2022/05/21 13:20:31;;;;;;;;;;;;;;;;;;5056196;28;20033;-73
2022/05/21 13:23:09;;;;;;;7.00;1.20;;;;;;;;;;5052186;28;20050;-74
2022/05/21 13:25:36;;;;;;;2.92;1.33;;;;;;;;;;5052197;28;20029;-75
2022/05/21 13:28:15;;;;;;;2.47;1.38;;;;;;;;;;5052938;28;20086;-76
2022/05/21 13:30:46;;;;;;;2.60;1.20;;;;;;;;;;5052564;28;20033;-77
2022/05/21 13:33:15;;;;;;;4.05;1.40;;;;;;;;;;5052610;28;20036;-76
2022/05/21 13:35:42;;;;;;;3.70;1.38;;;;;;;;;;5051696;28;20024;-76
2022/05/21 13:38:13;;;;;;;3.05;1.50;;;;;;;;;;5051666;28;20021;-77
2022/05/21 13:40:50;;;;;;;6.15;1.48;;;;;;;;;;5051966;28;20063;-76
2022/05/21 13:43:20;;;;;;;4.93;1.63;;;;;;;;;;5051147;28;20044;-76
2022/05/21 13:45:56;;;;;;;4.53;1.40;;;;;;;;;;5051392;28;20468;-72
2022/05/21 13:48:33;;;;;;;3.67;2.10;;;;;;;;;;5052497;28;20040;-71
2022/05/21 13:50:59;;;;;;;2.05;1.30;;;;;;;;;;5053814;28;20112;-75
2022/05/21 13:53:30;;;;;;;2.88;1.40;;;;;;;;;;5053612;28;20032;-74
2022/05/21 13:55:59;;;;;;;3.28;1.23;;;;;;;;;;5052354;28;20071;-72
2022/05/21 13:58:38;;;;;;;4.38;1.25;;;;;;;;;;5052405;28;20045;-73
2022/05/21 14:01:22;;;;;;;4.65;1.98;;;;;;;;;;5052874;28;20492;-75
2022/05/21 14:03:48;;;;;;;3.90;1.30;;;;;;;;;;5052814;28;20040;-75
2022/05/21 14:06:17;;;;;;;3.50;1.40;;;;;;;;;;5052437;28;20053;-74
2022/05/21 14:09:00;;;;;;;2.65;1.38;;;;;;;;;;5052185;28;20059;-75
2022/05/21 14:11:28;;;;;;;2.30;1.27;;;;;;;;;;5051958;28;20044;-74
2022/05/21 14:14:04;;;;;;;3.95;1.30;;;;;;;;;;5051804;28;20396;-74
2022/05/21 14:16:34;;;;;;;2.20;1.17;;;;;;;;;;5051964;28;20071;-75
2022/05/21 14:19:18;;;;;;;2.53;1.30;;;;;;;;;;5050744;28;20039;-75
2022/05/21 14:22:06;;;;;;;6.03;1.10;;;;;;;;;;5053120;28;20483;-77
2022/05/21 14:24:34;;;;;;;3.47;1.45;;;;;;;;;;5051508;28;20060;-76
2022/05/21 14:27:18;;;;;;;4.25;1.30;;;;;;;;;;5051469;28;20379;-77
2022/05/21 14:29:45;;;;;;;4.85;1.67;;;;;;;;;;5051445;28;20029;-75
2022/05/21 14:32:16;;;;;;;4.15;1.35;;;;;;;;;;5051891;28;20137;-72
2022/05/21 14:34:44;;;;;;;5.05;1.13;;;;;;;;;;5051847;28;20025;-76
2022/05/21 14:37:24;;;;;;;5.22;1.90;;;;;;;;;;5051685;28;20075;-74
2022/05/21 14:39:53;;;;;;;2.60;1.63;;;;;;;;;;5051501;28;20541;-74
2022/05/21 14:42:19;;;;;;;6.57;1.50;;;;;;;;;;5051349;28;20472;-72
2022/05/21 14:44:46;;;;;;;4.93;1.40;;;;;;;;;;5053174;28;20120;-73
2022/05/21 14:52:51;;;;;;;4.00;1.38;;;;;;;;;;5054543;28;20582;-71
2022/05/21 14:55:22;;;;;;;2.10;1.30;;;;;;;;;;5054144;28;21112;-71
2022/05/21 14:57:49;;;;;;;4.22;1.60;;;;;;;;;;5053427;28;20029;-70
2022/05/21 15:00:17;;;;;;;6.18;1.55;;;;;;;;;;5054836;28;20033;-70
2022/05/21 15:02:44;;;;;;;7.82;1.75;;;;;;;;;;5069987;28;20103;-70
2022/05/21 15:05:11;;;;;;;4.22;1.70;;;;;;;;;;5054631;28;20029;-72
2022/05/21 15:07:46;;;;;;;7.80;2.00;;;;;;;;;;5054601;28;20036;-71
2022/05/21 15:10:20;;;;;;;4.63;1.30;;;;;;;;;;5054390;28;20048;-71
2022/05/21 15:12:47;;;;;;;2.85;1.20;;;;;;;;;;5062498;28;20032;-71
2022/05/21 15:15:15;;;;;;;3.75;1.40;;;;;;;;;;5073313;28;20095;-71
2022/05/21 15:17:41;;;;;;;3.72;1.30;;;;;;;;;;5073407;28;20032;-70
2022/05/21 15:20:10;;;;;;;2.78;1.30;;;;;;;;;;5071777;28;20032;-72
2022/05/21 15:22:37;;;;;;;2.63;1.33;;;;;;;;;;5062307;28;20380;-72
2022/05/21 15:25:05;;;;;;;4.22;1.30;;;;;;;;;;5063083;28;20028;-71
2022/05/21 15:27:37;;;;;;;2.33;1.20;;;;;;;;;;5073083;28;20043;-72
2022/05/21 15:30:04;;;;;;;2.10;1.27;;;;;;;;;;5073333;28;20032;-69
2022/05/21 15:32:30;;;;;;;3.75;1.33;;;;;;;;;;5073460;28;20028;-70
2022/05/21 15:34:55;;;;;;;2.17;1.30;;;;;;;;;;5071908;28;20403;-71
2022/05/21 15:37:22;;;;;;;1.80;1.30;;;;;;;;;;5073155;28;20028;-69
2022/05/21 15:39:49;;;;;;;2.70;1.30;;;;;;;;;;5071194;28;20123;-70